Time;durP1;ratioP1;P1;durP2;ratioP2;P2;SDS_P1;SDS_P2;PMS_P1;PMS_P2;Temp;Humidity;BMP_temperature;BMP_pressure;BME280_temperature;BME280_humidity;BME280_pressure;Samples;Min_cycle;Max_cycle;Signal;HPM_P1;HPM_P2
2022/11/10 00:01:55;;;;;;;13.65;3.97;;;;;;;9.17;100.00;101689.50;5095067;28;20100;-78
2022/11/10 00:04:40;;;;;;;16.13;3.90;;;;;;;9.15;100.00;101694.47;5092133;28;20509;-78
2022/11/10 00:07:27;;;;;;;12.38;3.75;;;;;;;9.13;100.00;101685.41;5094271;28;20052;-78
2022/11/10 00:10:12;;;;;;;14.52;3.67;;;;;;;9.11;100.00;101693.03;5094678;28;20048;-79
2022/11/10 00:13:01;;;;;;;23.77;4.20;;;;;;;9.07;100.00;101690.44;5092219;28;20052;-79
2022/11/10 00:18:50;;;;;;;17.05;4.00;;;;;;;9.05;100.00;101686.69;5092376;28;20048;-78
2022/11/10 00:21:36;;;;;;;11.73;3.45;;;;;;;9.02;100.00;101685.59;5093556;28;20491;-79
2022/11/10 00:24:21;;;;;;;10.70;3.33;;;;;;;9.00;100.00;101699.25;5074089;28;20057;-79
2022/11/10 00:27:06;;;;;;;8.65;3.20;;;;;;;8.97;100.00;101697.41;5073814;28;20049;-79
2022/11/10 00:29:52;;;;;;;12.10;4.03;;;;;;;8.96;100.00;101709.19;5072629;28;20472;-79
2022/11/10 00:32:36;;;;;;;15.45;3.08;;;;;;;8.93;100.00;101698.63;5073768;28;20049;-79
2022/11/10 00:35:21;;;;;;;13.88;3.78;;;;;;;8.92;100.00;101697.88;5074480;28;20178;-79
2022/11/10 00:38:06;;;;;;;15.38;4.35;;;;;;;8.90;100.00;101697.53;5072501;28;20048;-79
2022/11/10 00:40:51;;;;;;;13.38;3.85;;;;;;;8.90;100.00;101702.84;5073451;28;20053;-79
2022/11/10 00:43:36;;;;;;;12.90;4.03;;;;;;;8.89;100.00;101700.59;5073935;28;20140;-79
2022/11/10 00:46:21;;;;;;;13.82;3.60;;;;;;;8.87;100.00;101708.97;5072455;28;20096;-79
2022/11/10 00:49:06;;;;;;;12.55;4.15;;;;;;;8.87;100.00;101708.22;5073030;28;20052;-79
2022/11/10 00:51:52;;;;;;;11.82;3.40;;;;;;;8.84;100.00;101717.72;5073451;28;20049;-79
2022/11/10 00:54:37;;;;;;;18.98;4.38;;;;;;;8.84;100.00;101731.00;5072263;28;20069;-79
2022/11/10 00:57:21;;;;;;;13.25;4.03;;;;;;;8.86;100.00;101720.72;5072645;28;20499;-80
2022/11/10 01:00:08;;;;;;;18.45;4.30;;;;;;;8.86;100.00;101735.91;5073275;28;20107;-79
2022/11/10 01:02:54;;;;;;;17.83;4.05;;;;;;;8.86;100.00;101738.56;5071049;28;20049;-79
2022/11/10 01:05:39;;;;;;;14.57;3.55;;;;;;;8.86;100.00;101743.88;5073278;28;20053;-78
2022/11/10 01:08:24;;;;;;;11.07;3.58;;;;;;;8.87;100.00;101734.75;5086959;28;20053;-79
2022/11/10 01:11:13;;;;;;;14.38;4.07;;;;;;;8.89;100.00;101745.72;5071133;28;20049;-79
2022/11/10 01:13:58;;;;;;;21.92;3.75;;;;;;;8.87;100.00;101742.72;5074146;28;20053;-78
2022/11/10 01:16:43;;;;;;;18.27;4.63;;;;;;;8.86;100.00;101744.63;5074043;28;20057;-79
2022/11/10 01:19:28;;;;;;;16.67;4.43;;;;;;;8.85;100.00;101745.03;5071904;28;20053;-79
2022/11/10 01:22:13;;;;;;;17.08;4.88;;;;;;;8.81;100.00;101749.63;5072506;28;20052;-79
2022/11/10 01:24:58;;;;;;;12.45;4.15;;;;;;;8.80;100.00;101751.53;5090761;28;20485;-79
2022/11/10 01:27:43;;;;;;;14.00;4.18;;;;;;;8.77;100.00;101747.06;5092084;28;20052;-78
2022/11/10 01:30:28;;;;;;;13.48;4.25;;;;;;;8.76;100.00;101753.53;5092097;28;20095;-77
2022/11/10 01:33:13;;;;;;;18.13;4.05;;;;;;;8.74;100.00;101752.44;5092363;28;20052;-76
2022/11/10 01:35:58;;;;;;;12.15;3.70;;;;;;;8.71;100.00;101764.59;5091457;28;20053;-77
2022/11/10 01:38:43;;;;;;;13.70;4.32;;;;;;;8.69;100.00;101759.69;5091361;28;20049;-77
2022/11/10 01:41:29;;;;;;;18.50;3.97;;;;;;;8.68;100.00;101766.16;5092791;28;20476;-77
2022/11/10 01:44:23;;;;;;;18.55;4.20;;;;;;;8.67;100.00;101763.88;5091262;28;20053;-76
2022/11/10 01:47:08;;;;;;;14.93;4.50;;;;;;;8.68;100.00;101757.44;5092143;28;20556;-77
2022/11/10 01:49:53;;;;;;;13.65;4.05;;;;;;;8.68;100.00;101760.84;5092875;28;20048;-76
2022/11/10 01:52:39;;;;;;;16.10;4.72;;;;;;;8.69;100.00;101764.25;5090882;28;20091;-76
2022/11/10 01:55:24;;;;;;;15.32;4.03;;;;;;;8.69;100.00;101762.34;5091462;28;20053;-77
2022/11/10 01:58:12;;;;;;;18.83;4.50;;;;;;;8.69;100.00;101769.56;5092754;28;20508;-77
2022/11/10 02:00:58;;;;;;;9.60;3.92;;;;;;;8.67;100.00;101769.94;5090561;28;20052;-77
2022/11/10 02:03:56;;;;;;;14.48;4.30;;;;;;;8.67;100.00;101779.81;5091971;28;20056;-77
2022/11/10 02:06:44;;;;;;;14.02;4.07;;;;;;;8.67;100.00;101790.44;5092872;28;20421;-77
2022/11/10 02:09:29;;;;;;;18.08;4.50;;;;;;;8.67;100.00;101795.75;5090555;28;20511;-76
2022/11/10 02:12:14;;;;;;;17.98;4.70;;;;;;;8.65;100.00;101790.84;5093458;28;20068;-77
2022/11/10 02:14:59;;;;;;;18.05;4.70;;;;;;;8.66;100.00;101800.31;5093087;28;20429;-76
2022/11/10 02:17:46;;;;;;;19.40;4.95;;;;;;;8.68;100.00;101797.25;5091025;28;20045;-77
2022/11/10 02:20:31;;;;;;;16.13;4.38;;;;;;;8.67;100.00;101795.75;5092037;28;20045;-77
2022/11/10 02:23:28;;;;;;;13.68;4.82;;;;;;;8.67;100.00;101801.06;5092324;28;20052;-77
2022/11/10 02:26:16;;;;;;;14.38;4.50;;;;;;;8.65;100.00;101801.44;5090889;28;20052;-77
2022/11/10 02:29:01;;;;;;;18.42;5.07;;;;;;;8.66;100.00;101794.25;5091200;28;20068;-77
2022/11/10 02:31:46;;;;;;;18.50;4.65;;;;;;;8.65;100.00;101806.75;5092505;28;20048;-77
2022/11/10 02:34:31;;;;;;;13.43;4.90;;;;;;;8.64;100.00;101797.28;5090684;28;20076;-77
2022/11/10 02:37:16;;;;;;;22.02;4.90;;;;;;;8.62;100.00;101796.19;5090786;28;20044;-77
2022/11/10 02:40:02;;;;;;;14.32;4.30;;;;;;;8.61;100.00;101802.66;5092256;28;20044;-77
2022/11/10 02:42:47;;;;;;;23.27;5.40;;;;;;;8.58;100.00;101798.88;5089406;28;20060;-77
2022/11/10 02:45:32;;;;;;;14.27;4.45;;;;;;;8.57;100.00;101807.25;5091615;28;20135;-77
2022/11/10 02:48:17;;;;;;;19.17;4.88;;;;;;;8.57;100.00;101815.22;5092237;28;20144;-77
2022/11/10 02:51:02;;;;;;;13.70;5.00;;;;;;;8.54;100.00;101824.72;5094138;28;20052;-77
2022/11/10 02:53:48;;;;;;;21.10;5.10;;;;;;;8.55;100.00;101822.81;5094586;28;20521;-77
2022/11/10 02:56:34;;;;;;;19.60;5.10;;;;;;;8.53;100.00;101820.56;5095821;28;20045;-77
2022/11/10 02:59:19;;;;;;;15.18;5.07;;;;;;;8.54;100.00;101826.63;5094060;28;20088;-77
2022/11/10 03:02:04;;;;;;;14.02;5.07;;;;;;;8.51;100.00;101836.13;5094558;28;20052;-77
2022/11/10 03:04:48;;;;;;;15.23;4.43;;;;;;;8.53;100.00;101846.34;5095349;28;20053;-77
2022/11/10 03:07:33;;;;;;;17.20;5.00;;;;;;;8.49;100.00;101848.28;5093374;28;20412;-77
2022/11/10 03:10:18;;;;;;;12.95;5.07;;;;;;;8.48;100.00;101841.47;5096552;28;20086;-77
2022/11/10 03:13:03;;;;;;;16.23;4.63;;;;;;;8.47;100.00;101846.03;5095418;28;20049;-77
2022/11/10 03:15:48;;;;;;;18.27;5.00;;;;;;;8.46;100.00;101841.13;5096443;28;20053;-77
2022/11/10 03:18:33;;;;;;;16.27;5.30;;;;;;;8.46;100.00;101844.53;5094660;28;20045;-77
2022/11/10 03:21:18;;;;;;;19.98;5.47;;;;;;;8.45;100.00;101837.72;5094663;28;20068;-77
2022/11/10 03:24:04;;;;;;;15.10;5.03;;;;;;;8.43;100.00;101849.88;5095067;28;20048;-77
2022/11/10 03:26:48;;;;;;;15.85;4.90;;;;;;;8.44;100.00;101848.72;5093914;28;20045;-78
2022/11/10 03:29:33;;;;;;;17.25;4.82;;;;;;;8.42;100.00;101848.38;5108194;28;20136;-78
2022/11/10 03:32:18;;;;;;;13.13;4.90;;;;;;;8.42;100.00;101864.28;5095465;28;20052;-79
2022/11/10 03:35:04;;;;;;;21.50;5.05;;;;;;;8.41;100.00;101863.53;5092685;28;20049;-78
2022/11/10 03:37:49;;;;;;;11.95;5.40;;;;;;;8.40;100.00;101863.97;5094764;28;20048;-77
2022/11/10 03:40:34;;;;;;;18.63;5.13;;;;;;;8.38;100.00;101874.22;5095616;28;20049;-77
2022/11/10 03:43:39;;;;;;;19.65;5.25;;;;;;;8.38;100.00;101866.25;5093981;28;20118;-77
2022/11/10 03:46:24;;;;;;;22.75;6.00;;;;;;;8.34;100.00;101872.34;5094845;28;20501;-77
2022/11/10 03:49:09;;;;;;;12.65;4.97;;;;;;;8.32;100.00;101881.84;5095440;28;20405;-78
2022/11/10 03:51:54;;;;;;;22.60;6.30;;;;;;;8.32;100.00;101890.56;5092729;28;20087;-78
2022/11/10 03:54:38;;;;;;;20.33;5.47;;;;;;;8.29;100.00;101888.69;5093615;28;20041;-78
2022/11/10 03:57:23;;;;;;;12.30;4.88;;;;;;;8.28;100.00;101897.78;5095491;28;20049;-78
2022/11/10 04:00:10;;;;;;;20.85;5.95;;;;;;;8.26;100.00;101905.38;5093393;28;20509;-78
2022/11/10 04:02:55;;;;;;;19.45;6.32;;;;;;;8.29;100.00;101911.81;5093661;28;20110;-77
2022/11/10 04:08:59;;;;;;;19.52;5.50;;;;;;;8.30;100.00;101915.97;5093877;28;20479;-77
2022/11/10 04:17:52;;;;;;;12.75;5.43;;;;;;;8.28;100.00;101942.88;5094778;28;20053;-77
2022/11/10 04:20:37;;;;;;;20.70;5.75;;;;;;;8.27;100.00;101941.38;5092430;28;20060;-77
2022/11/10 04:23:27;;;;;;;17.65;4.68;;;;;;;8.27;100.00;101954.66;5093841;28;20053;-77
2022/11/10 04:26:29;;;;;;;19.65;5.00;;;;;;;8.29;100.00;101962.22;5093951;28;20048;-77
2022/11/10 04:29:16;;;;;;;13.57;5.05;;;;;;;8.29;100.00;101959.56;5092993;28;20052;-77
2022/11/10 04:32:01;;;;;;;15.95;5.55;;;;;;;8.26;100.00;101961.09;5093562;28;20052;-77
2022/11/10 04:34:46;;;;;;;20.65;5.53;;;;;;;8.25;100.00;101970.19;5094261;28;20476;-77
2022/11/10 04:37:31;;;;;;;16.38;6.05;;;;;;;8.23;100.00;101967.19;5093033;28;20084;-77
2022/11/10 04:40:16;;;;;;;16.13;5.10;;;;;;;8.23;100.00;101974.38;5093233;28;20044;-77
2022/11/10 04:43:01;;;;;;;16.13;6.13;;;;;;;8.21;100.00;101966.81;5093987;28;20128;-77
2022/11/10 04:45:45;;;;;;;15.65;5.63;;;;;;;8.23;100.00;101966.44;5092504;28;20053;-77
2022/11/10 04:48:31;;;;;;;18.58;5.70;;;;;;;8.22;100.00;101965.69;5093078;28;20056;-77
2022/11/10 04:51:19;;;;;;;14.27;5.05;;;;;;;8.23;100.00;101961.13;5094122;28;20056;-77
2022/11/10 04:54:05;;;;;;;14.80;5.22;;;;;;;8.23;100.00;101959.22;5091993;28;20049;-78
2022/11/10 04:56:51;;;;;;;18.63;5.13;;;;;;;8.24;100.00;101965.28;5093123;28;20049;-77
2022/11/10 04:59:36;;;;;;;11.57;5.13;;;;;;;8.22;100.00;101983.50;5094153;28;20048;-77
2022/11/10 05:02:21;;;;;;;20.00;5.90;;;;;;;8.19;100.00;101981.63;5091394;28;20053;-77
2022/11/10 05:05:06;;;;;;;14.23;5.40;;;;;;;8.16;100.00;101988.47;5092794;28;20533;-77
2022/11/10 05:07:51;;;;;;;18.48;5.93;;;;;;;8.16;100.00;101998.31;5093368;28;20052;-77
2022/11/10 05:10:37;;;;;;;15.10;5.43;;;;;;;8.17;100.00;101995.28;5091861;28;20048;-77
2022/11/10 05:13:22;;;;;;;19.20;6.07;;;;;;;8.16;100.00;102001.72;5091957;28;20517;-77
2022/11/10 05:16:09;;;;;;;12.45;5.22;;;;;;;8.14;100.00;102004.00;5093458;28;20048;-77
2022/11/10 05:18:57;;;;;;;16.83;5.50;;;;;;;8.14;100.00;101996.06;5090980;28;20048;-77
2022/11/10 05:21:41;;;;;;;22.42;5.70;;;;;;;8.15;100.00;102005.53;5092703;28;20045;-78
2022/11/10 05:24:26;;;;;;;14.05;5.50;;;;;;;8.15;100.00;102005.53;5093291;28;20049;-77
2022/11/10 05:27:11;;;;;;;16.65;6.10;;;;;;;8.14;100.00;102006.66;5091214;28;20048;-77
2022/11/10 05:29:56;;;;;;;17.95;5.60;;;;;;;8.15;100.00;102007.41;5093779;28;20053;-77
2022/11/10 05:32:41;;;;;;;18.20;5.22;;;;;;;8.16;100.00;102012.34;5091314;28;20056;-78
2022/11/10 05:35:26;;;;;;;20.25;5.72;;;;;;;8.16;100.00;102008.94;5094447;28;20048;-78
2022/11/10 05:38:11;;;;;;;28.10;6.47;;;;;;;8.14;100.00;102009.31;5092684;28;20080;-80
2022/11/10 05:40:56;;;;;;;16.33;5.22;;;;;;;8.13;100.00;102007.81;5093685;28;20094;-80
2022/11/10 05:43:41;;;;;;;15.68;5.05;;;;;;;8.14;100.00;102005.91;5092102;28;20049;-82
2022/11/10 05:46:26;;;;;;;15.85;5.32;;;;;;;8.13;100.00;102007.06;5089966;28;20060;-80
2022/11/10 05:49:11;;;;;;;14.18;5.47;;;;;;;8.11;100.00;102010.09;5091081;28;20514;-81
2022/11/10 05:51:56;;;;;;;18.20;6.03;;;;;;;8.10;100.00;102007.84;5092053;28;20488;-81
2022/11/10 05:54:41;;;;;;;15.63;4.80;;;;;;;8.10;100.00;102013.91;5092233;28;20501;-81
2022/11/10 05:57:26;;;;;;;19.35;5.57;;;;;;;8.10;100.00;102013.16;5093124;28;20040;-81
2022/11/10 06:00:13;;;;;;;13.23;5.95;;;;;;;8.07;100.00;102019.22;5093445;28;20052;-81
2022/11/10 06:03:11;;;;;;;15.13;5.10;;;;;;;8.04;100.00;102021.50;5091836;28;20482;-81
2022/11/10 06:05:56;;;;;;;19.38;6.00;;;;;;;8.02;100.00;102025.69;5093165;28;20492;-81
2022/11/10 06:08:41;;;;;;;17.58;5.78;;;;;;;8.01;100.00;102032.91;5094041;28;20425;-82
2022/11/10 06:11:26;;;;;;;19.10;6.35;;;;;;;8.02;100.00;102045.00;5091838;28;20052;-81
2022/11/10 06:14:11;;;;;;;11.93;5.70;;;;;;;8.03;100.00;102035.16;5093089;28;20053;-82
2022/11/10 06:16:56;;;;;;;14.85;5.80;;;;;;;7.99;100.00;102035.22;5091914;28;20052;-80
2022/11/10 06:19:41;;;;;;;18.55;5.80;;;;;;;8.00;100.00;102043.91;5091597;28;20053;-80
2022/11/10 06:22:26;;;;;;;14.23;6.20;;;;;;;8.00;100.00;102062.47;5092635;28;20055;-81
2022/11/10 06:25:11;;;;;;;12.65;5.38;;;;;;;7.98;100.00;102059.47;5093320;28;20493;-80
2022/11/10 06:27:56;;;;;;;12.98;5.60;;;;;;;7.97;100.00;102076.53;5091582;28;20485;-80
2022/11/10 06:30:41;;;;;;;14.07;5.38;;;;;;;7.97;100.00;102085.22;5092813;28;20056;-80
2022/11/10 06:33:26;;;;;;;14.65;5.07;;;;;;;7.97;100.00;102084.47;5093047;28;20054;-80
2022/11/10 06:36:12;;;;;;;14.35;5.32;;;;;;;7.94;100.00;102093.97;5091377;28;20099;-80
2022/11/10 06:38:57;;;;;;;17.67;5.22;;;;;;;7.95;100.00;102092.06;5091882;28;20044;-81
2022/11/10 06:41:42;;;;;;;11.77;5.40;;;;;;;7.94;100.00;102099.25;5092987;28;20053;-80
2022/11/10 06:44:27;;;;;;;11.93;4.97;;;;;;;7.94;100.00;102101.16;5090570;28;20509;-80
2022/11/10 06:47:11;;;;;;;13.20;4.88;;;;;;;7.92;100.00;102106.84;5091799;28;20409;-81
2022/11/10 06:49:56;;;;;;;15.23;5.40;;;;;;;7.90;100.00;102109.13;5092553;28;20048;-80
2022/11/10 06:52:41;;;;;;;12.73;5.10;;;;;;;7.92;100.00;102103.44;5090296;28;20059;-80
2022/11/10 06:55:27;;;;;;;15.77;5.22;;;;;;;7.91;100.00;102099.28;5091660;28;20855;-79
2022/11/10 06:58:12;;;;;;;9.38;4.25;;;;;;;7.92;100.00;102111.41;5092213;28;20489;-79
2022/11/10 07:01:00;;;;;;;12.77;5.38;;;;;;;7.94;100.00;102117.81;5090639;28;20123;-88
2022/11/10 07:03:46;;;;;;;16.33;4.45;;;;;;;7.95;100.00;102123.88;5091879;28;20148;-82
2022/11/10 07:06:50;;;;;;;14.52;5.65;;;;;;;7.96;100.00;102139.41;5092632;28;20045;-84
2022/11/10 07:09:36;;;;;;;13.10;4.35;;;;;;;7.98;100.00;102152.28;5093490;28;20048;-82
2022/11/10 07:12:21;;;;;;;11.13;4.93;;;;;;;8.00;100.00;102157.94;5091653;28;20056;-82
2022/11/10 07:15:07;;;;;;;13.15;4.15;;;;;;;8.00;100.00;102166.63;5092998;28;20111;-81
2022/11/10 07:17:52;;;;;;;19.95;4.28;;;;;;;8.04;100.00;102161.31;5089678;28;20118;-84
2022/11/10 07:20:37;;;;;;;14.23;4.45;;;;;;;8.08;100.00;102154.09;5091621;28;20497;-85
2022/11/10 07:23:22;;;;;;;12.68;4.43;;;;;;;8.10;100.00;102151.06;5092897;28;20056;-83
2022/11/10 07:26:08;;;;;;;11.27;4.25;;;;;;;8.13;100.00;102152.94;5090699;28;20523;-85
2022/11/10 07:28:53;;;;;;;15.30;4.55;;;;;;;8.14;100.00;102157.09;5090748;28;20045;-84
2022/11/10 07:31:38;;;;;;;12.45;4.20;;;;;;;8.17;100.00;102149.13;5090190;28;20080;-85
2022/11/10 07:34:23;;;;;;;11.82;4.38;;;;;;;8.20;100.00;102155.56;5070531;28;20132;-85
2022/11/10 07:37:08;;;;;;;18.63;4.47;;;;;;;8.23;100.00;102158.19;5072871;28;20136;-86
2022/11/10 07:39:53;;;;;;;13.95;5.13;;;;;;;8.29;100.00;102154.00;5075626;28;20053;-83
2022/11/10 07:42:39;;;;;;;13.57;4.00;;;;;;;8.32;100.00;102155.91;5072608;28;20048;-83
2022/11/10 07:45:25;;;;;;;15.25;3.97;;;;;;;8.35;100.00;102157.03;5073462;28;20045;-83
2022/11/10 07:48:10;;;;;;;15.20;4.22;;;;;;;8.40;100.00;102164.53;5075382;28;20049;-84
2022/11/10 07:50:55;;;;;;;12.60;3.75;;;;;;;8.45;100.00;102176.66;5076013;28;20136;-84
2022/11/10 07:53:40;;;;;;;15.50;4.13;;;;;;;8.50;100.00;102184.19;5074009;28;20115;-83
2022/11/10 07:56:25;;;;;;;13.10;3.92;;;;;;;8.54;100.00;102191.00;5073497;28;20092;-87
2022/11/10 07:59:10;;;;;;;14.77;4.07;;;;;;;8.59;100.00;102187.19;5075639;28;20136;-80
2022/11/10 08:01:56;;;;;;;13.00;3.88;;;;;;;8.64;100.00;102179.56;5074050;28;20057;-83
2022/11/10 08:04:41;;;;;;;22.30;4.75;;;;;;;8.71;100.00;102186.72;5074861;28;20144;-82
2022/11/10 08:07:26;;;;;;;12.65;3.95;;;;;;;8.76;100.00;102186.28;5088537;28;20057;-82
2022/11/10 08:10:11;;;;;;;11.25;3.85;;;;;;;8.81;100.00;102193.06;5073419;28;20045;-83
2022/11/10 08:12:58;;;;;;;10.27;4.18;;;;;;;8.89;100.00;102178.59;5087176;28;20052;-83
2022/11/10 08:15:44;;;;;;;13.85;4.35;;;;;;;8.99;100.00;102186.47;5075319;28;20069;-82
2022/11/10 08:18:28;;;;;;;17.13;3.85;;;;;;;9.09;100.00;102186.78;5074285;28;20057;-81
2022/11/10 08:21:19;;;;;;;21.85;4.25;;;;;;;9.20;100.00;102195.38;5093849;28;20044;-82
2022/11/10 08:24:04;;;;;;;11.48;3.60;;;;;;;9.32;100.00;102203.63;5095203;28;20056;-82
2022/11/10 08:26:49;;;;;;;11.57;3.88;;;;;;;9.42;100.00;102220.63;5092919;28;20052;-82
2022/11/10 08:29:34;;;;;;;12.45;4.18;;;;;;;9.50;100.00;102224.72;5093918;28;20056;-81
2022/11/10 08:32:20;;;;;;;19.48;4.07;;;;;;;9.61;100.00;102225.34;5095022;28;20052;-83
2022/11/10 08:35:05;;;;;;;15.20;4.45;;;;;;;9.73;100.00;102226.72;5092681;28;20045;-82
2022/11/10 08:37:50;;;;;;;14.73;4.00;;;;;;;9.83;100.00;102231.19;5094011;28;20052;-80
2022/11/10 08:40:37;;;;;;;14.65;3.67;;;;;;;9.93;100.00;102229.56;5094278;28;20591;-80
2022/11/10 08:43:22;;;;;;;10.80;3.72;;;;;;;10.03;100.00;102241.94;5092879;28;20057;-80
2022/11/10 08:46:07;;;;;;;19.15;5.03;;;;;;;10.07;100.00;102234.69;5092926;28;20049;-86
2022/11/10 08:48:52;;;;;;;17.48;4.03;;;;;;;10.10;100.00;102246.44;5094728;28;20128;-85
2022/11/10 08:51:37;;;;;;;12.43;3.78;;;;;;;10.10;100.00;102247.19;5092920;28;20048;-82
2022/11/10 08:54:23;;;;;;;10.77;3.90;;;;;;;10.11;100.00;102248.69;5093352;28;20060;-79
2022/11/10 08:57:08;;;;;;;15.13;3.75;;;;;;;10.14;100.00;102253.22;5094986;28;20048;-79
2022/11/10 08:59:53;;;;;;;11.55;3.97;;;;;;;10.22;100.00;102262.66;5092169;28;20485;-79
2022/11/10 09:02:38;;;;;;;15.68;3.65;;;;;;;10.27;100.00;102254.25;5092807;28;20053;-79
2022/11/10 09:05:23;;;;;;;10.93;3.47;;;;;;;10.33;100.00;102262.53;5094221;28;20053;-79
2022/11/10 09:08:09;;;;;;;15.73;4.00;;;;;;;10.40;100.00;102267.00;5092560;28;20048;-79
2022/11/10 09:10:53;;;;;;;14.82;2.90;;;;;;;10.45;100.00;102261.97;5093154;28;20057;-79
2022/11/10 09:13:38;;;;;;;14.90;3.33;;;;;;;10.50;100.00;102263.44;5094787;28;20119;-79
2022/11/10 09:16:23;;;;;;;13.95;3.90;;;;;;;10.55;100.00;102262.97;5092512;28;20048;-80
2022/11/10 09:19:08;;;;;;;12.85;3.92;;;;;;;10.63;100.00;102269.72;5093231;28;20464;-80
2022/11/10 09:21:53;;;;;;;16.10;3.47;;;;;;;10.69;100.00;102270.78;5094069;28;20053;-80
2022/11/10 09:24:38;;;;;;;8.45;3.78;;;;;;;10.78;99.95;102275.59;5091492;28;20057;-80
2022/11/10 09:27:23;;;;;;;13.95;3.40;;;;;;;10.86;99.37;102275.06;5092839;28;20057;-80
2022/11/10 09:30:09;;;;;;;14.00;3.67;;;;;;;10.95;98.75;102267.31;5093331;28;20131;-79
2022/11/10 09:33:01;;;;;;;9.90;3.03;;;;;;;11.06;98.67;102269.06;5094323;28;20146;-80
2022/11/10 09:35:46;;;;;;;17.02;3.53;;;;;;;11.13;98.78;102268.97;5092444;28;20566;-80
2022/11/10 09:38:32;;;;;;;9.43;2.90;;;;;;;11.22;98.01;102269.94;5093061;28;20044;-80
2022/11/10 09:41:17;;;;;;;13.65;3.15;;;;;;;11.32;97.52;102269.00;5094006;28;20052;-80
2022/11/10 09:44:45;;;;;;;14.88;3.50;;;;;;;11.44;97.49;102283.66;5091973;28;20497;-80
2022/11/10 09:47:59;;;;;;;12.75;3.53;;;;;;;11.56;97.19;102280.41;5071714;28;20049;-80
2022/11/10 09:51:05;;;;;;;9.27;3.30;;;;;;;11.66;96.62;102284.78;5069508;28;20057;-81
2022/11/10 09:54:01;;;;;;;13.48;3.60;;;;;;;11.76;96.01;102301.75;5068057;28;20136;-80
2022/11/10 09:56:46;;;;;;;9.38;3.60;;;;;;;11.90;95.31;102314.13;5070064;28;20136;-81
2022/11/10 09:59:33;;;;;;;10.25;3.00;;;;;;;12.01;95.16;102317.31;5070264;28;20474;-81
2022/11/10 10:02:46;;;;;;;16.15;3.05;;;;;;;12.12;94.77;102312.53;5069956;28;20052;-81
2022/11/10 10:05:45;;;;;;;18.42;4.18;;;;;;;12.22;93.69;102306.22;5070454;28;20613;-80
2022/11/10 10:08:39;;;;;;;14.50;2.95;;;;;;;12.23;93.42;102321.09;5071016;28;20542;-81
2022/11/10 10:11:33;;;;;;;15.02;3.17;;;;;;;12.25;93.40;102320.66;5069964;28;20045;-81
2022/11/10 10:14:57;;;;;;;16.08;3.13;;;;;;;12.28;93.75;102335.88;5070261;28;20061;-81
2022/11/10 10:18:01;;;;;;;10.18;3.15;;;;;;;12.34;92.83;102332.31;5069832;28;20045;-80
2022/11/10 10:21:02;;;;;;;10.07;2.90;;;;;;;12.38;93.04;102348.25;5077191;28;20052;-81
2022/11/10 10:23:53;;;;;;;16.38;3.10;;;;;;;12.46;92.50;102357.59;5091787;28;20040;-83
2022/11/10 10:26:58;;;;;;;16.63;3.00;;;;;;;12.58;92.28;102358.91;5092115;28;20057;-85
2022/11/10 10:29:45;;;;;;;13.75;3.17;;;;;;;12.71;91.82;102354.44;5091643;28;20441;-82
2022/11/10 10:32:30;;;;;;;11.02;3.05;;;;;;;12.76;91.18;102351.28;5092615;28;20057;-82
2022/11/10 10:35:16;;;;;;;8.30;2.30;;;;;;;12.78;90.68;102356.94;5093648;28;20056;-81
2022/11/10 10:38:05;;;;;;;12.65;3.30;;;;;;;12.81;90.04;102369.47;5091319;28;20049;-83
2022/11/10 10:40:52;;;;;;;13.73;2.88;;;;;;;12.91;90.54;102362.38;5105501;28;20144;-82
2022/11/10 10:43:40;;;;;;;12.45;2.75;;;;;;;13.05;90.15;102364.75;5093079;28;20048;-82
2022/11/10 10:46:27;;;;;;;16.30;2.78;;;;;;;13.15;89.03;102357.66;5091555;28;20143;-81
2022/11/10 10:49:22;;;;;;;11.57;2.60;;;;;;;13.20;88.93;102349.13;5092780;28;20487;-82
2022/11/10 10:52:19;;;;;;;12.30;2.40;;;;;;;13.19;88.27;102351.06;5090829;28;20087;-88
2022/11/10 10:55:06;;;;;;;13.82;3.38;;;;;;;13.24;88.62;102352.47;5091901;28;20513;-81
2022/11/10 10:57:58;;;;;;;9.75;2.50;;;;;;;13.30;88.08;102342.78;5092459;28;20052;-82
2022/11/10 11:00:45;;;;;;;5.18;2.67;;;;;;;13.38;87.79;102349.47;5090737;28;20053;-82
2022/11/10 11:03:44;;;;;;;17.40;2.40;;;;;;;13.51;87.61;102358.31;5092118;28;20480;-82
2022/11/10 11:06:31;;;;;;;20.90;3.78;;;;;;;13.58;86.74;102357.41;5091899;28;20053;-82
2022/11/10 11:09:21;;;;;;;9.30;2.75;;;;;;;13.59;86.68;102372.28;5091221;28;20049;-81
2022/11/10 11:12:11;;;;;;;6.22;2.33;;;;;;;13.59;86.29;102366.94;5094484;28;20052;-82
2022/11/10 11:15:21;;;;;;;18.48;3.20;;;;;;;13.64;87.16;102371.75;5097448;28;20145;-85
2022/11/10 11:18:15;;;;;;;11.00;2.67;;;;;;;13.60;86.70;102376.44;5095408;28;20497;-84
2022/11/10 11:21:15;;;;;;;12.60;2.65;;;;;;;13.53;85.62;102371.28;5097017;28;20049;-83
2022/11/10 11:24:18;;;;;;;13.05;3.00;;;;;;;13.51;86.23;102385.06;5094706;28;20049;-83
2022/11/10 11:27:17;;;;;;;13.57;3.20;;;;;;;13.59;85.73;102391.00;5096089;28;20079;-83
2022/11/10 11:30:49;;;;;;;12.07;3.60;;;;;;;13.70;86.27;102402.19;5095096;28;20049;-84
2022/11/10 11:33:41;;;;;;;16.35;2.97;;;;;;;13.74;85.42;102412.78;5093378;28;20068;-84
2022/11/10 11:36:38;;;;;;;9.65;2.92;;;;;;;13.73;85.71;102420.06;5094500;28;20052;-83
2022/11/10 11:39:37;;;;;;;12.00;3.17;;;;;;;13.76;85.58;102421.91;5095768;28;20072;-81
2022/11/10 11:42:41;;;;;;;9.73;2.80;;;;;;;13.76;85.53;102429.19;5093701;28;20064;-82
2022/11/10 11:45:38;;;;;;;12.77;3.80;;;;;;;13.79;85.44;102423.00;5094206;28;20096;-82
2022/11/10 11:49:04;;;;;;;9.30;2.47;;;;;;;13.85;85.48;102424.00;5095753;28;20057;-81
2022/11/10 11:52:19;;;;;;;13.13;3.35;;;;;;;13.93;84.85;102436.03;5095474;28;20110;-82
2022/11/10 11:55:20;;;;;;;31.17;11.45;;;;;;;13.92;84.62;102429.91;5093758;28;20056;-82
2022/11/10 11:58:44;;;;;;;15.63;5.38;;;;;;;13.90;84.62;102434.94;5095071;28;20132;-79
2022/11/10 12:01:45;;;;;;;12.30;3.55;;;;;;;13.92;83.97;102434.53;5093100;28;20592;-83
2022/11/10 12:05:07;;;;;;;11.13;3.40;;;;;;;13.91;84.31;102441.81;5095006;28;20052;-84
2022/11/10 12:08:17;;;;;;;12.70;3.58;;;;;;;13.94;84.21;102446.31;5092952;28;20048;-82
2022/11/10 12:11:43;;;;;;;14.88;2.97;;;;;;;13.95;84.41;102447.81;5095222;28;20442;-82
2022/11/10 12:14:52;;;;;;;7.45;2.63;;;;;;;13.96;84.28;102440.53;5094247;28;20057;-82
2022/11/10 12:18:11;;;;;;;7.38;2.92;;;;;;;13.94;84.36;102437.53;5092470;28;20517;-83
2022/11/10 12:21:22;;;;;;;14.20;2.80;;;;;;;13.91;84.22;102444.47;5094769;28;20052;-82
2022/11/10 12:24:30;;;;;;;15.40;3.58;;;;;;;13.88;84.14;102441.88;5092738;28;20561;-82
2022/11/10 12:27:32;;;;;;;12.38;3.10;;;;;;;13.87;84.07;102433.09;5094649;28;20048;-82
2022/11/10 12:30:18;;;;;;;7.97;2.63;;;;;;;13.93;83.66;102438.72;5094585;28;20044;-82
2022/11/10 12:33:09;;;;;;;14.38;3.00;;;;;;;14.00;83.24;102435.81;5093474;28;20564;-83
2022/11/10 12:35:56;;;;;;;13.77;3.15;;;;;;;14.07;83.24;102453.63;5094716;28;20044;-82
2022/11/10 12:38:47;;;;;;;9.73;2.92;;;;;;;14.12;82.99;102453.88;5093221;28;20533;-82
2022/11/10 12:41:45;;;;;;;3.85;2.45;;;;;;;14.13;83.16;102458.06;5094287;28;20049;-82
2022/11/10 12:44:36;;;;;;;9.95;2.60;;;;;;;14.20;83.13;102473.19;5095128;28;20115;-82
2022/11/10 12:47:24;;;;;;;13.65;2.78;;;;;;;14.19;83.16;102471.69;5092868;28;20068;-82
2022/11/10 12:50:44;;;;;;;16.75;2.80;;;;;;;14.18;82.50;102464.84;5094442;28;20044;-82
2022/11/10 12:53:38;;;;;;;8.70;2.33;;;;;;;14.13;82.14;102466.09;5093109;28;20188;-82
2022/11/10 12:56:36;;;;;;;13.00;2.90;;;;;;;14.09;81.37;102459.31;5094065;28;20048;-82
2022/11/10 12:59:40;;;;;;;7.60;2.10;;;;;;;13.98;81.06;102455.00;5092501;28;20056;-81
2022/11/10 13:02:41;;;;;;;11.20;3.10;;;;;;;13.99;81.88;102471.84;5093026;28;20096;-82
2022/11/10 13:05:37;;;;;;;18.38;3.22;;;;;;;13.96;81.54;102464.63;5094705;28;20049;-82
2022/11/10 13:08:29;;;;;;;11.85;2.97;;;;;;;13.93;82.19;102463.56;5093033;28;20068;-81
2022/11/10 13:11:14;;;;;;;14.90;2.58;;;;;;;13.93;81.23;102457.44;5094227;28;20535;-81